Time;durP1;ratioP1;P1;durP2;ratioP2;P2;SDS_P1;SDS_P2;PMS_P1;PMS_P2;Temp;Humidity;BMP_temperature;BMP_pressure;BME280_temperature;BME280_humidity;BME280_pressure;Samples;Min_cycle;Max_cycle;Signal;HPM_P1;HPM_P2
2021/07/25 00:00:13;;;;;;;7.57;4.60;;;21.20;91.90;;;;;;5077388;28;20024;-77
2021/07/25 00:02:38;;;;;;;6.90;4.10;;;21.20;91.90;;;;;;5076838;28;20038;-77
2021/07/25 00:05:06;;;;;;;7.85;4.10;;;21.20;91.90;;;;;;5077308;28;20047;-77
2021/07/25 00:07:31;;;;;;;7.47;4.00;;;21.10;92.10;;;;;;5078479;28;20105;-77
2021/07/25 00:09:57;;;;;;;6.38;4.22;;;21.10;92.10;;;;;;5094783;28;20024;-77
2021/07/25 00:12:23;;;;;;;8.15;4.40;;;21.10;92.10;;;;;;5093465;28;20032;-77
2021/07/25 00:14:49;;;;;;;6.40;4.13;;;21.10;92.10;;;;;;5094068;28;20024;-77
2021/07/25 00:17:14;;;;;;;8.02;4.32;;;21.00;92.20;;;;;;5094027;28;20028;-77
2021/07/25 00:19:40;;;;;;;8.18;3.75;;;21.00;92.20;;;;;;5093356;28;20027;-77
2021/07/25 00:22:06;;;;;;;7.22;4.65;;;21.00;92.20;;;;;;5093818;28;20032;-77
2021/07/25 00:24:35;;;;;;;5.72;4.03;;;21.00;92.30;;;;;;5093228;28;20027;-77
2021/07/25 00:27:02;;;;;;;6.57;4.00;;;20.90;92.20;;;;;;5093706;28;20031;-77
2021/07/25 00:29:30;;;;;;;7.22;4.30;;;20.90;92.30;;;;;;5092869;28;20042;-77
2021/07/25 00:32:08;;;;;;;8.93;4.22;;;20.90;92.20;;;;;;5093454;28;20055;-77
2021/07/25 00:34:35;;;;;;;6.00;4.20;;;20.90;92.20;;;;;;5092631;28;20024;-78
2021/07/25 00:37:01;;;;;;;8.60;4.90;;;20.90;92.20;;;;;;5093184;28;20028;-77
2021/07/25 00:39:27;;;;;;;6.13;4.03;;;21.00;92.10;;;;;;5092872;28;20107;-78
2021/07/25 00:41:54;;;;;;;7.70;4.10;;;20.90;92.10;;;;;;5093472;28;20040;-77
2021/07/25 00:44:19;;;;;;;5.80;3.92;;;20.90;92.10;;;;;;5093303;28;20503;-80
2021/07/25 00:46:56;;;;;;;5.47;3.75;;;20.90;92.10;;;;;;5093021;28;20048;-77
2021/07/25 00:49:21;;;;;;;7.97;3.90;;;20.90;92.10;;;;;;5093112;28;20028;-80
2021/07/25 00:51:47;;;;;;;5.63;3.92;;;20.90;92.20;;;;;;5092477;28;20024;-78
2021/07/25 00:54:13;;;;;;;6.90;4.05;;;20.80;92.10;;;;;;5093156;28;20050;-78
2021/07/25 00:56:40;;;;;;;9.63;4.15;;;20.80;92.20;;;;;;5092217;28;20140;-76
2021/07/25 00:59:05;;;;;;;4.72;3.42;;;20.70;92.40;;;;;;5092472;28;20032;-76
2021/07/25 01:01:31;;;;;;;4.82;3.08;;;20.70;92.20;;;;;;5091784;28;20035;-74
2021/07/25 01:04:15;;;;;;;6.63;3.75;;;20.80;92.10;;;;;;5092341;28;20377;-74
2021/07/25 01:07:16;;;;;;;4.80;3.50;;;20.80;92.10;;;;;;5091631;28;20028;-72
2021/07/25 01:10:01;;;;;;;7.03;3.58;;;20.90;91.90;;;;;;5094680;28;20047;-73
2021/07/25 01:12:44;;;;;;;7.18;3.75;;;20.90;91.80;;;;;;5112973;28;20062;-72
2021/07/25 01:15:15;;;;;;;4.38;3.58;;;20.90;92.00;;;;;;5111170;28;20488;-73
2021/07/25 01:17:41;;;;;;;10.02;3.38;;;20.90;91.90;;;;;;5094222;28;20151;-73
2021/07/25 01:20:09;;;;;;;7.10;3.63;;;21.00;91.80;;;;;;5094480;28;20528;-73
2021/07/25 01:22:43;;;;;;;6.63;3.53;;;21.00;91.80;;;;;;5093946;28;20039;-73
2021/07/25 01:25:12;;;;;;;8.05;3.47;;;21.00;91.60;;;;;;5089062;28;20027;-72
2021/07/25 01:27:43;;;;;;;5.47;3.53;;;21.00;91.60;;;;;;5094202;28;20024;-73
2021/07/25 01:30:13;;;;;;;6.70;3.42;;;21.00;91.50;;;;;;5110961;28;20084;-73
2021/07/25 01:32:41;;;;;;;7.38;3.80;;;21.10;91.60;;;;;;5094251;28;20468;-73
2021/07/25 01:35:10;;;;;;;6.32;3.53;;;21.00;91.80;;;;;;5110160;28;20062;-72
2021/07/25 01:37:37;;;;;;;5.75;3.63;;;21.10;91.90;;;;;;5094757;28;20499;-72
2021/07/25 01:40:17;;;;;;;8.73;3.90;;;21.00;92.00;;;;;;5113595;28;20032;-72
2021/07/25 01:42:43;;;;;;;5.53;3.60;;;21.00;92.00;;;;;;5111211;28;20032;-72
2021/07/25 01:45:10;;;;;;;6.18;3.25;;;21.00;91.90;;;;;;5095220;28;20055;-72
2021/07/25 01:47:36;;;;;;;7.70;3.60;;;21.00;91.70;;;;;;5094781;28;20062;-72
2021/07/25 01:50:04;;;;;;;5.40;3.63;;;21.00;91.60;;;;;;5094871;28;20028;-72
2021/07/25 01:52:29;;;;;;;4.47;3.15;;;21.00;91.80;;;;;;5112904;28;20465;-73
2021/07/25 01:54:55;;;;;;;4.20;3.55;;;21.00;91.80;;;;;;5095178;28;20031;-72
2021/07/25 01:57:21;;;;;;;6.10;3.60;;;21.00;91.90;;;;;;5094533;28;20024;-73
2021/07/25 01:59:46;;;;;;;7.75;4.00;;;20.90;91.90;;;;;;5094486;28;20440;-72
2021/07/25 02:02:12;;;;;;;5.50;3.25;;;21.00;91.90;;;;;;5094661;28;20118;-72
2021/07/25 02:04:37;;;;;;;7.95;4.13;;;20.90;92.10;;;;;;5116045;28;20019;-72
2021/07/25 02:07:05;;;;;;;8.13;4.53;;;21.00;92.00;;;;;;5116141;28;20028;-73
2021/07/25 02:09:36;;;;;;;9.02;4.18;;;21.00;91.90;;;;;;5116552;28;20552;-73
2021/07/25 02:12:09;;;;;;;6.70;4.05;;;20.90;91.80;;;;;;5117884;28;20028;-72
2021/07/25 02:14:36;;;;;;;5.43;4.00;;;20.90;91.90;;;;;;5098117;28;20031;-73
2021/07/25 02:17:03;;;;;;;5.97;4.30;;;20.80;92.00;;;;;;5117394;28;20031;-72
2021/07/25 02:19:29;;;;;;;6.05;3.90;;;20.90;92.10;;;;;;5098363;28;20464;-74
2021/07/25 02:21:54;;;;;;;5.70;3.85;;;20.80;92.20;;;;;;5099033;28;20031;-72
2021/07/25 02:24:21;;;;;;;7.10;4.07;;;20.80;92.30;;;;;;5098888;28;20041;-72
2021/07/25 02:26:47;;;;;;;8.73;4.50;;;20.80;92.20;;;;;;5098463;28;20027;-73
2021/07/25 02:29:13;;;;;;;5.40;3.88;;;20.80;92.20;;;;;;5116909;28;20027;-72
2021/07/25 02:31:39;;;;;;;7.05;4.13;;;20.80;92.20;;;;;;5116846;28;20460;-73
2021/07/25 02:34:05;;;;;;;6.72;4.25;;;20.80;92.20;;;;;;5116899;28;20019;-72
2021/07/25 02:36:31;;;;;;;6.65;4.10;;;20.80;92.30;;;;;;5097693;28;20365;-73
2021/07/25 02:38:57;;;;;;;7.03;4.00;;;20.80;92.40;;;;;;5117184;28;20100;-72
2021/07/25 02:41:23;;;;;;;6.45;4.18;;;20.80;92.50;;;;;;5098568;28;20476;-72
2021/07/25 02:43:48;;;;;;;7.30;4.38;;;20.80;92.30;;;;;;5116065;28;20074;-72
2021/07/25 02:46:14;;;;;;;7.45;4.43;;;20.80;92.40;;;;;;5098334;28;20019;-72
2021/07/25 02:48:40;;;;;;;6.93;4.38;;;20.90;92.30;;;;;;5115499;28;20020;-73
2021/07/25 02:51:06;;;;;;;5.30;4.07;;;20.90;92.30;;;;;;5098091;28;20111;-72
2021/07/25 02:53:31;;;;;;;9.93;4.68;;;20.90;92.30;;;;;;5115270;28;20031;-73
2021/07/25 02:55:57;;;;;;;6.80;4.55;;;20.90;92.40;;;;;;5116221;28;20180;-73
2021/07/25 02:58:23;;;;;;;6.22;4.53;;;20.90;92.50;;;;;;5097867;28;20050;-73
2021/07/25 03:00:49;;;;;;;8.35;4.50;;;20.90;92.50;;;;;;5096755;28;20047;-74
2021/07/25 03:03:14;;;;;;;8.40;4.97;;;20.90;92.60;;;;;;5097797;28;20043;-73
2021/07/25 03:05:40;;;;;;;10.05;5.10;;;20.90;92.50;;;;;;5115349;28;20452;-73
2021/07/25 03:08:06;;;;;;;6.32;4.63;;;20.90;92.50;;;;;;5097189;28;20440;-73
2021/07/25 03:10:32;;;;;;;9.07;5.15;;;20.90;92.50;;;;;;5097067;28;20030;-74
2021/07/25 03:12:57;;;;;;;9.25;5.03;;;20.90;92.50;;;;;;5097655;28;20525;-73
2021/07/25 03:15:23;;;;;;;7.25;4.65;;;20.90;92.50;;;;;;5115368;28;20028;-73
2021/07/25 03:17:49;;;;;;;9.88;5.10;;;20.90;92.40;;;;;;5096300;28;20110;-73
2021/07/25 03:20:15;;;;;;;7.10;4.68;;;21.00;92.30;;;;;;5115823;28;20027;-73
2021/07/25 03:22:40;;;;;;;8.40;5.05;;;21.00;92.30;;;;;;5114880;28;20036;-73
2021/07/25 03:25:07;;;;;;;9.10;4.90;;;21.00;92.30;;;;;;5097696;28;20073;-73
2021/07/25 03:27:32;;;;;;;7.60;4.35;;;21.00;92.40;;;;;;5096322;28;20380;-74
2021/07/25 03:29:58;;;;;;;8.35;4.95;;;21.00;92.40;;;;;;5097222;28;20045;-73
2021/07/25 03:32:24;;;;;;;6.07;4.43;;;21.00;92.30;;;;;;5097596;28;20031;-73
2021/07/25 03:34:50;;;;;;;7.05;4.60;;;21.00;92.30;;;;;;5096660;28;20051;-73
2021/07/25 03:37:17;;;;;;;7.22;4.53;;;20.90;92.30;;;;;;5096744;28;20031;-73
2021/07/25 03:39:45;;;;;;;10.02;4.35;;;20.90;92.40;;;;;;5114750;28;20027;-73
2021/07/25 03:42:12;;;;;;;8.18;4.50;;;20.90;92.40;;;;;;5097355;28;20043;-73
2021/07/25 03:44:38;;;;;;;8.93;4.40;;;21.00;92.50;;;;;;5096994;28;20030;-73
2021/07/25 03:47:04;;;;;;;7.70;5.00;;;20.90;92.60;;;;;;5097438;28;20118;-73
2021/07/25 03:49:31;;;;;;;7.70;4.68;;;20.90;92.60;;;;;;5097126;28;20103;-76
2021/07/25 03:51:57;;;;;;;8.63;5.22;;;20.90;92.60;;;;;;5097124;28;20027;-73
2021/07/25 03:54:23;;;;;;;8.40;4.50;;;20.80;92.60;;;;;;5097120;28;20054;-72
2021/07/25 03:56:48;;;;;;;7.25;4.22;;;20.80;92.80;;;;;;5096786;28;20480;-73
2021/07/25 03:59:15;;;;;;;8.13;4.38;;;20.70;92.80;;;;;;5115731;28;20050;-72
2021/07/25 04:01:40;;;;;;;6.80;3.95;;;20.70;92.80;;;;;;5096408;28;20023;-73
2021/07/25 04:04:06;;;;;;;5.95;3.92;;;20.70;92.70;;;;;;5097049;28;20024;-73
2021/07/25 04:06:32;;;;;;;7.03;4.22;;;20.70;92.90;;;;;;5096779;28;20035;-76
2021/07/25 04:08:58;;;;;;;6.38;4.35;;;20.70;92.80;;;;;;5096581;28;20504;-72
2021/07/25 04:11:24;;;;;;;8.02;4.45;;;20.80;92.70;;;;;;5096928;28;20118;-72
2021/07/25 04:13:49;;;;;;;6.82;4.40;;;20.80;92.60;;;;;;5114607;28;20520;-72
2021/07/25 04:16:16;;;;;;;5.72;4.05;;;20.80;92.50;;;;;;5096584;28;20027;-72
2021/07/25 04:18:41;;;;;;;4.95;3.55;;;20.70;92.40;;;;;;5096169;28;20023;-73
2021/07/25 04:21:07;;;;;;;7.45;4.05;;;20.80;92.50;;;;;;5115010;28;20034;-72
2021/07/25 04:23:33;;;;;;;6.32;3.72;;;20.80;92.30;;;;;;5096376;28;20450;-77
2021/07/25 04:25:58;;;;;;;7.95;4.00;;;20.80;92.30;;;;;;5095567;28;20404;-73
2021/07/25 04:28:25;;;;;;;6.70;3.97;;;20.80;92.40;;;;;;5114626;28;20023;-72
2021/07/25 04:30:51;;;;;;;9.05;3.70;;;20.70;92.40;;;;;;5113861;28;20110;-73
2021/07/25 04:33:19;;;;;;;6.32;3.80;;;20.80;92.40;;;;;;5095999;28;20500;-72
2021/07/25 04:35:46;;;;;;;10.45;3.88;;;20.80;92.30;;;;;;5095518;28;20031;-72
2021/07/25 04:38:12;;;;;;;6.32;3.85;;;20.80;92.40;;;;;;5095715;28;20032;-73
2021/07/25 04:40:39;;;;;;;6.18;3.92;;;20.80;92.40;;;;;;5095842;28;20032;-74
2021/07/25 04:43:11;;;;;;;5.93;4.35;;;20.70;92.50;;;;;;5114396;28;20027;-73
2021/07/25 04:45:58;;;;;;;6.47;4.10;;;20.80;92.40;;;;;;5095275;28;20030;-77
2021/07/25 04:48:32;;;;;;;5.93;3.85;;;20.80;92.40;;;;;;5096171;28;20392;-72
2021/07/25 04:51:07;;;;;;;5.88;3.83;;;20.90;92.30;;;;;;5095744;28;20028;-73
2021/07/25 04:53:41;;;;;;;8.57;3.95;;;20.90;92.40;;;;;;5096335;28;20039;-73
2021/07/25 04:56:09;;;;;;;6.72;3.97;;;20.90;92.30;;;;;;5095974;28;20051;-72
2021/07/25 04:58:51;;;;;;;4.85;3.40;;;20.90;92.40;;;;;;5095841;28;20024;-76
2021/07/25 05:01:36;;;;;;;5.43;3.47;;;20.90;92.50;;;;;;5095797;28;20031;-72
2021/07/25 05:04:04;;;;;;;5.43;3.55;;;20.80;92.60;;;;;;5095759;28;20110;-73
2021/07/25 05:06:33;;;;;;;6.90;3.67;;;20.90;92.60;;;;;;5095671;28;20020;-73
2021/07/25 05:09:00;;;;;;;7.32;3.90;;;20.90;92.60;;;;;;5094142;28;20602;-73
2021/07/25 05:11:31;;;;;;;11.07;4.25;;;20.90;92.60;;;;;;5095318;28;20073;-73
2021/07/25 05:14:19;;;;;;;6.93;4.40;;;20.90;92.60;;;;;;5102513;27;20402;-72
2021/07/25 05:16:53;;;;;;;7.70;4.35;;;20.90;92.60;;;;;;5068216;28;20039;-73
2021/07/25 05:19:36;;;;;;;6.97;4.15;;;21.00;92.60;;;;;;5069029;28;20458;-72
2021/07/25 05:22:09;;;;;;;6.88;3.97;;;20.90;92.50;;;;;;5068629;28;20028;-72
2021/07/25 05:24:44;;;;;;;7.13;3.80;;;20.90;92.50;;;;;;5068829;28;20110;-77
2021/07/25 05:27:17;;;;;;;4.97;3.72;;;20.90;92.50;;;;;;5070013;28;20082;-72
2021/07/25 05:29:44;;;;;;;6.65;4.35;;;20.90;92.50;;;;;;5067879;28;20028;-73
2021/07/25 05:32:09;;;;;;;5.40;4.25;;;20.90;92.40;;;;;;5067661;28;20116;-72
2021/07/25 05:34:35;;;;;;;7.53;4.05;;;21.00;92.40;;;;;;5069973;28;20112;-75
2021/07/25 05:37:01;;;;;;;8.90;4.15;;;21.00;92.50;;;;;;5069212;28;20440;-72
2021/07/25 05:39:26;;;;;;;8.52;4.50;;;21.00;92.50;;;;;;5068318;28;20057;-72
2021/07/25 05:41:52;;;;;;;5.05;3.97;;;21.00;92.50;;;;;;5067328;28;20031;-73
2021/07/25 05:44:17;;;;;;;6.18;4.30;;;21.00;92.60;;;;;;5069142;28;20025;-72
2021/07/25 05:46:43;;;;;;;6.72;4.38;;;20.90;92.60;;;;;;5068737;28;20025;-73
2021/07/25 05:49:09;;;;;;;7.05;4.05;;;20.90;92.60;;;;;;5067645;28;20381;-72
2021/07/25 05:51:34;;;;;;;7.22;4.50;;;21.00;92.70;;;;;;5069114;28;20058;-73
2021/07/25 05:54:00;;;;;;;6.68;4.43;;;21.00;92.60;;;;;;5068493;28;20036;-73
2021/07/25 05:56:26;;;;;;;8.27;4.28;;;21.00;92.60;;;;;;5067948;28;20029;-72
2021/07/25 05:58:51;;;;;;;6.70;3.97;;;21.10;92.70;;;;;;5066793;28;20025;-73
2021/07/25 06:01:17;;;;;;;9.35;4.65;;;21.00;92.80;;;;;;5068092;28;20028;-72
2021/07/25 06:03:42;;;;;;;8.63;3.95;;;21.00;93.00;;;;;;5067231;28;20488;-73
2021/07/25 06:06:08;;;;;;;8.05;4.22;;;21.00;92.90;;;;;;5068699;28;20120;-72
2021/07/25 06:08:34;;;;;;;6.78;4.22;;;20.90;93.10;;;;;;5068832;28;20024;-73
2021/07/25 06:10:59;;;;;;;6.25;4.13;;;20.90;93.00;;;;;;5066822;28;20029;-73
2021/07/25 06:13:25;;;;;;;8.80;4.97;;;20.90;93.10;;;;;;5068678;28;20110;-72
2021/07/25 06:15:51;;;;;;;6.80;4.18;;;20.90;93.00;;;;;;5067395;28;20033;-72
2021/07/25 06:18:16;;;;;;;7.95;4.65;;;20.90;92.90;;;;;;5068794;28;20413;-72
2021/07/25 06:20:42;;;;;;;7.53;4.45;;;20.90;93.00;;;;;;5068378;28;20033;-75
2021/07/25 06:23:09;;;;;;;7.03;4.03;;;20.90;92.90;;;;;;5067554;28;20397;-72
2021/07/25 06:25:35;;;;;;;8.60;4.82;;;20.90;92.90;;;;;;5054079;28;20033;-72
2021/07/25 06:28:03;;;;;;;6.85;4.90;;;20.80;92.90;;;;;;5055225;28;20021;-72
2021/07/25 06:30:29;;;;;;;7.95;4.65;;;20.90;93.00;;;;;;5055463;28;20043;-72
2021/07/25 06:33:00;;;;;;;9.63;4.85;;;20.90;92.90;;;;;;5053691;28;20453;-73
2021/07/25 06:35:33;;;;;;;7.18;4.53;;;20.90;92.70;;;;;;5054022;28;20033;-72
2021/07/25 06:38:04;;;;;;;6.53;4.60;;;21.00;92.80;;;;;;5053387;28;20032;-72
2021/07/25 06:40:31;;;;;;;8.55;5.35;;;21.00;92.80;;;;;;5055133;28;20029;-72
2021/07/25 06:42:59;;;;;;;8.23;4.78;;;21.00;92.80;;;;;;5053000;28;20045;-73
2021/07/25 06:45:25;;;;;;;8.25;4.22;;;21.00;92.70;;;;;;5054723;28;20470;-73
2021/07/25 06:47:52;;;;;;;8.73;4.38;;;21.00;92.80;;;;;;5053351;28;20025;-73
2021/07/25 06:50:23;;;;;;;6.45;4.30;;;21.10;92.70;;;;;;5053804;28;20025;-72
2021/07/25 06:52:50;;;;;;;8.57;4.68;;;21.10;92.60;;;;;;5054283;28;20035;-73
2021/07/25 06:55:17;;;;;;;9.32;4.15;;;21.10;92.50;;;;;;5053811;28;20037;-73
2021/07/25 06:57:43;;;;;;;8.05;4.30;;;21.10;92.60;;;;;;5054378;28;20032;-75
2021/07/25 07:00:09;;;;;;;11.80;4.72;;;21.10;92.50;;;;;;5053231;28;20343;-73
2021/07/25 07:02:55;;;;;;;9.07;4.03;;;21.00;92.30;;;;;;5052536;28;20562;-72
2021/07/25 07:05:25;;;;;;;6.13;4.38;;;21.10;92.30;;;;;;5054669;28;20028;-72
2021/07/25 07:07:53;;;;;;;6.65;4.20;;;21.10;92.10;;;;;;5053064;28;20029;-73
2021/07/25 07:10:20;;;;;;;6.88;4.15;;;21.00;92.30;;;;;;5053364;28;20028;-72
2021/07/25 07:12:47;;;;;;;5.88;4.15;;;21.10;92.20;;;;;;5052316;28;20160;-72
2021/07/25 07:15:14;;;;;;;5.35;3.55;;;21.10;92.20;;;;;;5053225;28;20047;-72
2021/07/25 07:17:40;;;;;;;4.97;3.90;;;21.10;92.00;;;;;;5053252;28;20025;-72
2021/07/25 07:20:11;;;;;;;4.28;3.40;;;21.20;91.70;;;;;;5052538;28;20420;-73
2021/07/25 07:22:37;;;;;;;7.47;3.47;;;21.20;91.50;;;;;;5053336;28;20029;-72
2021/07/25 07:25:04;;;;;;;5.13;2.95;;;21.20;91.60;;;;;;5052360;28;20086;-73
2021/07/25 07:27:30;;;;;;;6.15;3.30;;;21.30;91.30;;;;;;5053002;28;20112;-72
2021/07/25 07:29:57;;;;;;;4.32;3.25;;;21.40;90.90;;;;;;5053690;28;20057;-72
2021/07/25 07:32:23;;;;;;;4.95;3.72;;;21.60;90.60;;;;;;5053068;28;20033;-73
2021/07/25 07:34:48;;;;;;;5.75;3.80;;;21.60;90.40;;;;;;5053583;28;20103;-73
2021/07/25 07:37:14;;;;;;;6.40;3.70;;;21.60;90.00;;;;;;5051860;28;20425;-73
2021/07/25 07:39:41;;;;;;;4.18;3.20;;;21.70;90.20;;;;;;5054050;28;20032;-72
2021/07/25 07:42:08;;;;;;;5.20;3.17;;;21.70;90.10;;;;;;5052579;28;20814;-73
2021/07/25 07:44:35;;;;;;;6.47;3.03;;;21.80;90.20;;;;;;5052733;28;20057;-73
2021/07/25 07:47:01;;;;;;;6.43;3.20;;;21.80;90.00;;;;;;5053790;28;20025;-73
2021/07/25 07:49:27;;;;;;;3.47;2.30;;;21.80;90.20;;;;;;5052674;28;20033;-73
2021/07/25 07:51:53;;;;;;;4.60;2.60;;;21.70;87.10;;;;;;5051980;28;20036;-73
2021/07/25 07:54:18;;;;;;;4.03;2.40;;;21.70;87.00;;;;;;5052356;28;20029;-73
2021/07/25 07:56:44;;;;;;;4.50;2.40;;;21.70;86.50;;;;;;5052461;28;20025;-76
2021/07/25 07:59:10;;;;;;;4.47;2.63;;;21.70;85.60;;;;;;5051509;28;20025;-73
2021/07/25 08:01:36;;;;;;;5.63;2.65;;;21.80;85.40;;;;;;5052420;28;20029;-73
2021/07/25 08:04:01;;;;;;;4.88;2.40;;;21.80;85.60;;;;;;5051727;28;20079;-73
2021/07/25 08:06:27;;;;;;;4.13;2.35;;;21.80;84.90;;;;;;5052290;28;20029;-72
2021/07/25 08:08:53;;;;;;;4.03;2.63;;;21.80;85.30;;;;;;5051897;28;20032;-73
2021/07/25 08:11:18;;;;;;;4.25;2.67;;;22.00;85.80;;;;;;5052230;28;20036;-72
2021/07/25 08:13:44;;;;;;;5.38;2.75;;;21.90;85.90;;;;;;5051258;28;20053;-72
2021/07/25 08:16:11;;;;;;;7.15;2.70;;;22.00;85.90;;;;;;5051136;28;20060;-73
2021/07/25 08:18:36;;;;;;;3.95;1.95;;;22.00;84.90;;;;;;5053533;28;20057;-72
2021/07/25 08:21:03;;;;;;;4.25;2.78;;;21.90;83.40;;;;;;5050817;28;20476;-73
2021/07/25 08:23:29;;;;;;;4.05;2.30;;;21.90;83.40;;;;;;5053511;28;20039;-73
2021/07/25 08:25:54;;;;;;;4.55;2.30;;;22.00;83.90;;;;;;5052743;28;20017;-73
2021/07/25 08:28:20;;;;;;;7.40;2.70;;;22.00;83.80;;;;;;5053296;28;20052;-73
2021/07/25 08:30:45;;;;;;;5.82;2.33;;;22.20;83.20;;;;;;5051198;28;20112;-73
2021/07/25 08:33:11;;;;;;;4.63;2.47;;;22.30;82.40;;;;;;5051105;28;20497;-73
2021/07/25 08:35:37;;;;;;;3.67;2.13;;;22.40;81.50;;;;;;5051756;28;20078;-73
2021/07/25 08:38:03;;;;;;;2.90;2.22;;;22.50;81.00;;;;;;5051057;28;20037;-72
2021/07/25 08:40:31;;;;;;;3.55;2.00;;;22.50;80.80;;;;;;5051667;28;20029;-73
2021/07/25 08:43:11;;;;;;;5.68;2.22;;;22.60;79.20;;;;;;5051130;28;20066;-73
2021/07/25 08:45:39;;;;;;;2.58;2.08;;;22.60;78.30;;;;;;5051027;28;20033;-72
2021/07/25 08:48:10;;;;;;;4.25;2.28;;;22.60;79.30;;;;;;5050955;28;20029;-73
2021/07/25 08:50:49;;;;;;;3.22;2.00;;;22.50;79.00;;;;;;5051746;28;20029;-73
2021/07/25 08:53:17;;;;;;;2.47;2.20;;;22.50;78.90;;;;;;5051382;28;20045;-73
2021/07/25 08:55:43;;;;;;;3.08;2.30;;;22.50;78.90;;;;;;5048214;28;20797;-74
2021/07/25 08:58:11;;;;;;;4.65;2.25;;;22.50;79.40;;;;;;5047100;28;20032;-74
2021/07/25 09:00:38;;;;;;;5.80;2.40;;;22.50;80.20;;;;;;5051903;28;20031;-74
2021/07/25 09:03:08;;;;;;;4.32;2.08;;;22.50;80.20;;;;;;5050996;28;20036;-74
2021/07/25 09:05:35;;;;;;;2.55;2.28;;;22.40;80.30;;;;;;5051574;28;20025;-74
2021/07/25 09:08:04;;;;;;;3.30;2.50;;;22.50;80.90;;;;;;5051040;28;20040;-74
2021/07/25 09:10:31;;;;;;;4.75;2.65;;;22.50;81.00;;;;;;5052860;28;20032;-74
2021/07/25 09:12:57;;;;;;;4.85;2.38;;;22.50;81.50;;;;;;5052056;28;20057;-75
2021/07/25 09:15:34;;;;;;;4.30;2.40;;;22.50;80.40;;;;;;5051472;28;20048;-74
2021/07/25 09:18:02;;;;;;;3.92;2.55;;;22.60;80.40;;;;;;5051219;28;20025;-75
2021/07/25 09:20:29;;;;;;;2.70;2.30;;;22.60;80.80;;;;;;5052531;28;20096;-76
2021/07/25 09:22:54;;;;;;;3.63;2.30;;;22.60;80.50;;;;;;5050943;28;20035;-76
2021/07/25 09:25:20;;;;;;;3.00;2.22;;;22.60;81.20;;;;;;5051247;28;20381;-74
2021/07/25 09:27:46;;;;;;;3.28;2.45;;;22.70;80.90;;;;;;5052217;28;20021;-75
2021/07/25 09:30:19;;;;;;;4.20;2.22;;;22.70;81.30;;;;;;5051755;28;20048;-76
2021/07/25 09:32:45;;;;;;;5.70;2.50;;;22.80;80.90;;;;;;5032247;28;20457;-76
2021/07/25 09:35:31;;;;;;;7.35;2.42;;;22.80;80.60;;;;;;5031605;28;20022;-75
2021/07/25 09:38:09;;;;;;;3.92;2.72;;;22.90;80.50;;;;;;5048962;28;20024;-76
2021/07/25 09:40:37;;;;;;;5.13;2.70;;;23.00;80.10;;;;;;5048331;28;20021;-76
2021/07/25 09:43:21;;;;;;;3.80;2.53;;;23.10;80.20;;;;;;5048367;28;20045;-76
2021/07/25 09:45:54;;;;;;;4.22;2.60;;;23.20;79.70;;;;;;5052406;28;20090;-77
2021/07/25 09:48:33;;;;;;;3.60;2.60;;;23.20;78.80;;;;;;5050340;28;20025;-77
2021/07/25 09:51:19;;;;;;;5.80;2.63;;;23.20;78.40;;;;;;5041523;28;20017;-77
2021/07/25 09:53:50;;;;;;;3.78;2.30;;;23.30;77.80;;;;;;5049040;28;20033;-74
2021/07/25 09:56:23;;;;;;;4.88;2.45;;;23.20;77.40;;;;;;5043734;28;20108;-74
2021/07/25 09:58:49;;;;;;;6.55;2.10;;;23.30;77.20;;;;;;5050776;28;20036;-74
2021/07/25 10:01:40;;;;;;;3.35;2.17;;;23.30;77.20;;;;;;5054990;28;20025;-74
2021/07/25 10:04:17;;;;;;;7.07;2.85;;;23.30;77.60;;;;;;5053949;28;20033;-74
2021/07/25 10:06:44;;;;;;;3.72;2.83;;;23.40;79.20;;;;;;5054723;28;20033;-73
2021/07/25 10:09:12;;;;;;;3.20;2.30;;;23.40;79.30;;;;;;5054423;28;20474;-74
2021/07/25 10:11:46;;;;;;;3.10;2.15;;;23.40;78.20;;;;;;5054749;28;20079;-74
2021/07/25 10:14:15;;;;;;;3.50;2.50;;;23.40;77.20;;;;;;5053734;28;20052;-74
2021/07/25 10:16:41;;;;;;;5.85;2.40;;;23.40;78.00;;;;;;5053226;28;20025;-75
2021/07/25 10:19:09;;;;;;;5.90;2.63;;;23.40;77.50;;;;;;5051881;28;20033;-74
2021/07/25 10:21:34;;;;;;;4.05;2.30;;;23.50;77.20;;;;;;5050391;28;20028;-74
2021/07/25 10:24:03;;;;;;;4.40;2.47;;;23.50;76.70;;;;;;5051307;28;20025;-74
2021/07/25 10:26:29;;;;;;;5.00;2.58;;;23.50;75.80;;;;;;5053556;28;20029;-74
2021/07/25 10:28:59;;;;;;;3.08;2.45;;;23.40;75.30;;;;;;5054747;28;20364;-78
2021/07/25 10:31:26;;;;;;;3.42;2.33;;;23.50;76.00;;;;;;5053956;28;20029;-74
2021/07/25 10:33:54;;;;;;;3.85;1.55;;;23.50;76.20;;;;;;5053681;28;20071;-76
2021/07/25 10:36:20;;;;;;;4.97;2.10;;;23.60;73.90;;;;;;5053913;28;20025;-74
2021/07/25 10:38:47;;;;;;;3.67;2.28;;;23.50;73.20;;;;;;5053580;28;20029;-74
2021/07/25 10:41:21;;;;;;;2.33;1.73;;;23.50;73.20;;;;;;5053198;28;20193;-74
2021/07/25 10:43:47;;;;;;;2.15;1.95;;;23.50;73.00;;;;;;5053665;28;20029;-74
2021/07/25 10:46:21;;;;;;;2.65;1.98;;;23.60;72.90;;;;;;5053192;28;20460;-74
2021/07/25 10:49:05;;;;;;;3.10;1.45;;;23.80;71.60;;;;;;5054198;28;20382;-74
2021/07/25 10:51:35;;;;;;;4.13;1.80;;;23.70;71.00;;;;;;5055935;28;20025;-80
2021/07/25 10:54:19;;;;;;;4.43;1.73;;;23.80;70.60;;;;;;5053714;28;20029;-77
2021/07/25 10:57:02;;;;;;;2.40;1.50;;;23.80;69.90;;;;;;5056189;28;20025;-78
2021/07/25 10:59:41;;;;;;;3.30;1.63;;;23.80;72.10;;;;;;5054802;28;20125;-75
2021/07/25 11:02:32;;;;;;;3.58;1.60;;;23.80;70.20;;;;;;5054150;28;20112;-74
2021/07/25 11:04:57;;;;;;;4.35;1.73;;;23.90;68.80;;;;;;5052358;28;20053;-80
2021/07/25 11:07:23;;;;;;;3.60;1.48;;;23.90;68.90;;;;;;5056749;28;20028;-79
2021/07/25 11:10:05;;;;;;;3.53;1.70;;;23.90;68.50;;;;;;5054927;28;20056;-79
2021/07/25 11:12:51;;;;;;;3.95;1.63;;;23.90;66.80;;;;;;5045810;28;20048;-79
2021/07/25 11:15:30;;;;;;;3.58;1.50;;;23.90;67.80;;;;;;5036974;28;20057;-79
2021/07/25 11:18:01;;;;;;;3.08;1.35;;;24.00;67.20;;;;;;5055808;28;20025;-85
2021/07/25 11:23:21;;;;;;;2.90;1.48;;;24.00;67.20;;;;;;5050444;28;20068;-75
2021/07/25 11:25:48;;;;;;;3.22;1.75;;;24.00;68.30;;;;;;5053213;28;20494;-76
2021/07/25 11:28:42;;;;;;;1.90;1.40;;;24.00;68.20;;;;;;5054029;28;20025;-76
2021/07/25 11:31:08;;;;;;;5.03;1.70;;;24.10;69.00;;;;;;5044771;28;20025;-76
2021/07/25 11:33:39;;;;;;;2.83;1.60;;;24.10;68.30;;;;;;5053847;28;20120;-77
2021/07/25 11:36:08;;;;;;;2.10;1.50;;;24.20;67.10;;;;;;5052732;28;20119;-74
2021/07/25 11:38:35;;;;;;;2.60;1.77;;;24.20;65.60;;;;;;5053205;28;20034;-74
2021/07/25 11:41:02;;;;;;;2.00;1.50;;;24.20;66.20;;;;;;5053962;28;20033;-75
2021/07/25 11:43:47;;;;;;;2.35;1.60;;;24.20;66.70;;;;;;5053128;28;20033;-76
2021/07/25 11:46:36;;;;;;;2.80;1.67;;;24.30;66.90;;;;;;5053675;28;20040;-78
2021/07/25 11:49:08;;;;;;;3.83;1.60;;;24.40;71.30;;;;;;5052342;28;20029;-76
2021/07/25 11:51:35;;;;;;;2.53;1.80;;;24.50;70.40;;;;;;5053918;28;20025;-75
2021/07/25 11:54:01;;;;;;;1.92;1.73;;;24.50;67.00;;;;;;5052499;28;20037;-77
2021/07/25 11:56:28;;;;;;;2.88;1.83;;;24.60;67.60;;;;;;5052602;28;20484;-75
2021/07/25 11:59:08;;;;;;;3.15;1.77;;;24.70;69.10;;;;;;5053686;28;20108;-74
2021/07/25 12:01:35;;;;;;;4.47;1.90;;;24.70;69.70;;;;;;5052684;28;20047;-74
2021/07/25 12:04:17;;;;;;;2.05;1.60;;;24.80;67.80;;;;;;5053445;28;20036;-82
2021/07/25 12:06:44;;;;;;;2.05;1.70;;;24.90;67.10;;;;;;5032566;28;20083;-77
2021/07/25 12:09:10;;;;;;;3.25;2.00;;;24.90;68.90;;;;;;5037679;28;20024;-80
2021/07/25 12:11:38;;;;;;;3.00;1.75;;;25.00;67.90;;;;;;5052908;28;20021;-75
2021/07/25 12:14:05;;;;;;;4.43;1.85;;;25.00;68.40;;;;;;5050978;28;20387;-78
2021/07/25 12:16:50;;;;;;;4.47;1.95;;;25.10;68.80;;;;;;5051805;28;20029;-76
2021/07/25 12:19:20;;;;;;;4.75;1.80;;;25.10;68.30;;;;;;5052838;28;20075;-76
2021/07/25 12:21:47;;;;;;;3.08;2.22;;;25.10;69.20;;;;;;5051747;28;20025;-76
2021/07/25 12:24:31;;;;;;;3.80;2.00;;;25.10;70.00;;;;;;5051609;28;20032;-76
2021/07/25 12:26:58;;;;;;;2.67;1.85;;;25.30;69.70;;;;;;5051702;28;20029;-76
2021/07/25 12:29:41;;;;;;;3.28;1.92;;;25.30;69.20;;;;;;5052844;28;20104;-76
2021/07/25 12:32:25;;;;;;;4.00;1.73;;;25.20;69.20;;;;;;5051554;28;20052;-75
2021/07/25 12:35:11;;;;;;;3.03;1.60;;;25.10;68.20;;;;;;5051800;28;20419;-76
2021/07/25 12:38:14;;;;;;;2.97;2.20;;;25.20;69.60;;;;;;5051737;28;20036;-75
2021/07/25 12:41:01;;;;;;;2.60;1.85;;;25.20;68.60;;;;;;5014673;28;20026;-76
2021/07/25 12:43:27;;;;;;;4.30;2.17;;;25.20;67.00;;;;;;5052350;28;20072;-77
2021/07/25 12:45:54;;;;;;;3.60;1.92;;;25.40;68.30;;;;;;5052278;28;20029;-76
2021/07/25 12:48:25;;;;;;;2.45;2.05;;;25.70;68.00;;;;;;5051648;28;20635;-77
2021/07/25 12:54:00;;;;;;;3.08;2.03;;;26.10;67.40;;;;;;5053592;28;20036;-77
2021/07/25 12:56:33;;;;;;;4.07;2.42;;;26.20;67.20;;;;;;5053324;28;20094;-76
2021/07/25 12:59:01;;;;;;;4.35;1.88;;;26.30;66.40;;;;;;5052195;28;20413;-76
2021/07/25 13:03:59;;;;;;;2.22;1.73;;;26.70;64.80;;;;;;5053147;28;20082;-78